Time;durP1;ratioP1;P1;durP2;ratioP2;P2;SDS_P1;SDS_P2;PMS_P1;PMS_P2;Temp;Humidity;BMP_temperature;BMP_pressure;BME280_temperature;BME280_humidity;BME280_pressure;Samples;Min_cycle;Max_cycle;Signal;HPM_P1;HPM_P2
2022/12/24 00:00:20;;;;;;;12.02;6.78;;;8.20;99.90;;;;;;4996447;28;20049;-64
2022/12/24 00:02:46;;;;;;;10.27;5.63;;;8.30;99.90;;;;;;4997634;28;20041;-65
2022/12/24 00:05:12;;;;;;;9.32;5.75;;;8.30;99.90;;;;;;4993907;28;20030;-65
2022/12/24 00:07:38;;;;;;;7.93;5.60;;;8.20;99.90;;;;;;5004212;28;20804;-65
2022/12/24 00:10:05;;;;;;;9.90;5.97;;;8.20;99.90;;;;;;5001645;28;20044;-65
2022/12/24 00:12:31;;;;;;;8.73;5.05;;;8.10;99.90;;;;;;4998769;28;20126;-65
2022/12/24 00:14:57;;;;;;;9.50;4.65;;;8.10;99.90;;;;;;4999405;28;20049;-65
2022/12/24 00:17:23;;;;;;;8.05;5.50;;;8.20;99.90;;;;;;4998293;28;20038;-67
2022/12/24 00:19:48;;;;;;;8.23;5.40;;;8.20;99.90;;;;;;4996673;28;20632;-65
2022/12/24 00:22:14;;;;;;;8.90;4.72;;;8.20;99.90;;;;;;4994094;28;20570;-65
2022/12/24 00:24:40;;;;;;;11.40;4.57;;;8.20;99.90;;;;;;4996229;28;20116;-65
2022/12/24 00:27:06;;;;;;;6.82;4.63;;;8.10;99.90;;;;;;5002117;28;20065;-65
2022/12/24 00:29:32;;;;;;;7.50;4.68;;;8.10;99.90;;;;;;4999757;28;20041;-65
2022/12/24 00:31:59;;;;;;;7.15;4.80;;;8.10;99.90;;;;;;5000704;28;20026;-65
2022/12/24 00:34:25;;;;;;;7.43;4.53;;;8.20;99.90;;;;;;4998202;28;20114;-66
2022/12/24 00:36:51;;;;;;;8.40;4.88;;;8.20;99.90;;;;;;4998820;28;20038;-66
2022/12/24 00:39:17;;;;;;;7.93;5.00;;;8.20;99.90;;;;;;4995349;28;20034;-65
2022/12/24 00:41:43;;;;;;;7.78;4.47;;;8.20;99.90;;;;;;4996639;28;20045;-65
2022/12/24 00:44:09;;;;;;;8.85;4.40;;;8.30;99.90;;;;;;4996901;28;20496;-65
2022/12/24 00:46:39;;;;;;;8.18;5.20;;;8.30;99.90;;;;;;5002895;28;20041;-65
2022/12/24 00:49:06;;;;;;;6.55;4.40;;;8.40;99.90;;;;;;5000443;28;20806;-65
2022/12/24 00:51:34;;;;;;;7.03;4.32;;;8.40;99.90;;;;;;4999197;28;20045;-64
2022/12/24 00:54:00;;;;;;;6.05;4.40;;;8.30;99.90;;;;;;4997430;28;20077;-65
2022/12/24 00:56:26;;;;;;;6.80;4.90;;;8.30;99.90;;;;;;4997295;28;20038;-65
2022/12/24 00:58:53;;;;;;;6.35;4.35;;;8.30;99.90;;;;;;4995698;28;20502;-65
2022/12/24 01:01:19;;;;;;;5.22;3.65;;;8.30;99.90;;;;;;4993039;28;20038;-65
2022/12/24 01:03:45;;;;;;;6.65;4.22;;;8.40;99.90;;;;;;5002662;28;20112;-65
2022/12/24 01:06:14;;;;;;;5.55;3.75;;;8.30;99.90;;;;;;5000663;28;20042;-65
2022/12/24 01:08:41;;;;;;;6.57;3.92;;;8.30;99.90;;;;;;5001151;28;20033;-64
2022/12/24 01:11:08;;;;;;;5.68;4.05;;;8.40;99.90;;;;;;4995273;28;20026;-65
2022/12/24 01:13:35;;;;;;;6.20;3.80;;;8.40;99.70;;;;;;4997832;28;20084;-65
2022/12/24 01:16:01;;;;;;;8.15;4.03;;;8.30;99.60;;;;;;4996299;28;20045;-65
2022/12/24 01:18:27;;;;;;;5.97;4.00;;;8.30;99.90;;;;;;4995324;28;20474;-65
2022/12/24 01:21:02;;;;;;;5.70;3.90;;;8.20;99.90;;;;;;4995632;28;20053;-65
2022/12/24 01:23:29;;;;;;;7.68;4.35;;;8.10;99.90;;;;;;5002156;28;20033;-64
2022/12/24 01:25:59;;;;;;;6.10;4.05;;;8.10;99.90;;;;;;5001742;28;20125;-64
2022/12/24 01:28:25;;;;;;;5.40;3.70;;;8.10;99.90;;;;;;4985019;28;20104;-64
2022/12/24 01:30:50;;;;;;;5.97;3.55;;;8.10;99.90;;;;;;4998568;28;20843;-64
2022/12/24 01:33:16;;;;;;;5.75;3.97;;;8.10;99.90;;;;;;4995889;28;20030;-64
2022/12/24 01:35:42;;;;;;;4.47;3.28;;;8.20;99.90;;;;;;4996287;28;20048;-64
2022/12/24 01:38:10;;;;;;;6.75;3.50;;;8.20;99.90;;;;;;4992517;28;20041;-64
2022/12/24 01:43:27;;;;;;;5.35;3.70;;;8.20;99.80;;;;;;5000430;28;20038;-67
2022/12/24 01:45:55;;;;;;;6.75;3.40;;;8.30;99.70;;;;;;4999935;28;20092;-64
2022/12/24 01:48:29;;;;;;;4.72;3.63;;;8.30;99.40;;;;;;4997453;28;20026;-63
2022/12/24 01:51:01;;;;;;;4.35;3.33;;;8.30;99.60;;;;;;4996255;28;20076;-63
2022/12/24 01:53:27;;;;;;;5.60;3.50;;;8.30;99.50;;;;;;4994623;28;20076;-63
2022/12/24 01:55:54;;;;;;;4.18;2.97;;;8.30;99.50;;;;;;4993996;28;20075;-63
2022/12/24 01:58:23;;;;;;;4.97;3.15;;;8.30;99.50;;;;;;4993111;28;20049;-63
2022/12/24 02:00:48;;;;;;;5.82;4.20;;;8.30;99.30;;;;;;5001343;28;20057;-63
2022/12/24 02:03:14;;;;;;;4.97;3.25;;;8.30;99.10;;;;;;4999623;28;20121;-65
2022/12/24 02:05:52;;;;;;;5.55;3.97;;;8.30;99.20;;;;;;4999977;28;20030;-63
2022/12/24 02:08:19;;;;;;;7.82;3.47;;;8.30;99.30;;;;;;4996772;28;20038;-63
2022/12/24 02:10:46;;;;;;;6.07;3.88;;;8.30;99.20;;;;;;4996599;28;20030;-63
2022/12/24 02:13:14;;;;;;;6.68;4.25;;;8.30;99.20;;;;;;4992509;28;20550;-63
2022/12/24 02:16:01;;;;;;;7.05;4.30;;;8.40;99.30;;;;;;4997338;28;20037;-63
2022/12/24 02:18:50;;;;;;;6.05;3.95;;;8.40;99.40;;;;;;4997227;28;20030;-63
2022/12/24 02:21:46;;;;;;;4.53;3.42;;;8.40;99.30;;;;;;4998283;28;20041;-67
2022/12/24 02:24:55;;;;;;;6.15;4.20;;;8.40;99.20;;;;;;4996343;28;20030;-65
2022/12/24 02:27:43;;;;;;;4.82;3.08;;;8.40;99.10;;;;;;4964593;28;20054;-64
2022/12/24 02:30:17;;;;;;;7.70;3.45;;;8.40;99.10;;;;;;4993282;28;20045;-65
2022/12/24 02:33:06;;;;;;;5.05;3.63;;;8.40;99.10;;;;;;4995314;28;20469;-65
2022/12/24 02:35:46;;;;;;;6.38;3.65;;;8.40;99.10;;;;;;4994272;28;20113;-65
2022/12/24 02:38:26;;;;;;;5.57;3.28;;;8.40;99.00;;;;;;4998721;28;20041;-64
2022/12/24 02:41:14;;;;;;;5.68;3.42;;;8.40;98.90;;;;;;4999786;28;20402;-65
2022/12/24 02:43:43;;;;;;;4.78;3.25;;;8.40;98.90;;;;;;4993344;28;20233;-65
2022/12/24 02:46:24;;;;;;;6.53;4.40;;;8.40;99.00;;;;;;4995961;28;20103;-66
2022/12/24 02:48:50;;;;;;;5.28;3.95;;;8.40;99.00;;;;;;4995869;28;20081;-65
2022/12/24 02:51:20;;;;;;;5.95;3.83;;;8.40;99.00;;;;;;4992838;28;20034;-65
2022/12/24 02:53:46;;;;;;;4.70;3.10;;;8.30;99.20;;;;;;4993928;28;20037;-65
2022/12/24 02:56:21;;;;;;;4.55;3.08;;;8.40;99.20;;;;;;4994433;28;20033;-66
2022/12/24 02:58:59;;;;;;;4.63;3.40;;;8.30;99.20;;;;;;5000593;28;20052;-66
2022/12/24 03:01:43;;;;;;;5.40;3.58;;;8.40;99.40;;;;;;4997267;28;20054;-66
2022/12/24 03:04:40;;;;;;;5.53;3.38;;;8.40;99.10;;;;;;4994018;28;20042;-66
2022/12/24 03:07:22;;;;;;;;;;;8.40;99.10;;;;;;4996132;28;20039;-67
2022/12/24 03:10:10;;;;;;;5.13;3.42;;;8.40;99.00;;;;;;4990041;28;20671;-66
2022/12/24 03:12:43;;;;;;;4.75;3.10;;;8.40;99.00;;;;;;4992257;28;20041;-66
2022/12/24 03:15:13;;;;;;;4.57;3.13;;;8.40;99.00;;;;;;4996659;28;20038;-66
2022/12/24 03:17:42;;;;;;;5.22;3.65;;;8.40;99.00;;;;;;5006417;28;20076;-65
2022/12/24 03:20:10;;;;;;;6.05;3.72;;;8.40;99.00;;;;;;5003888;28;20085;-66
2022/12/24 03:22:37;;;;;;;4.47;3.33;;;8.40;99.00;;;;;;5004535;28;20042;-67
2022/12/24 03:25:03;;;;;;;7.60;4.03;;;8.40;99.00;;;;;;5002322;28;20477;-66
2022/12/24 03:27:31;;;;;;;5.45;3.78;;;8.40;99.00;;;;;;5000765;28;20716;-66
2022/12/24 03:29:58;;;;;;;6.45;3.63;;;8.40;99.00;;;;;;5002139;28;20061;-67
2022/12/24 03:32:27;;;;;;;5.47;3.67;;;8.40;99.10;;;;;;5001577;28;20502;-66
2022/12/24 03:34:53;;;;;;;7.10;4.13;;;8.40;99.10;;;;;;5005331;28;20406;-66
2022/12/24 03:37:19;;;;;;;5.80;3.33;;;8.40;99.00;;;;;;5003279;28;20034;-66
2022/12/24 03:39:45;;;;;;;5.40;4.03;;;8.40;99.00;;;;;;5003917;28;20088;-66
2022/12/24 03:42:11;;;;;;;4.43;3.50;;;8.40;99.00;;;;;;5000578;28;20041;-67
2022/12/24 03:44:36;;;;;;;6.65;4.00;;;8.40;99.00;;;;;;5003216;28;20042;-66
2022/12/24 03:47:03;;;;;;;8.40;4.90;;;8.40;98.90;;;;;;5002662;28;20026;-67
2022/12/24 03:49:28;;;;;;;5.20;3.83;;;8.40;99.10;;;;;;5004640;28;20044;-66
2022/12/24 03:51:54;;;;;;;6.45;4.03;;;8.40;99.00;;;;;;5000697;28;20049;-67
2022/12/24 03:54:20;;;;;;;6.65;3.78;;;8.40;99.10;;;;;;5003867;28;20037;-66
2022/12/24 03:56:46;;;;;;;8.13;4.13;;;8.40;99.10;;;;;;5003429;28;20072;-66
2022/12/24 03:59:11;;;;;;;5.20;3.88;;;8.40;99.10;;;;;;5005297;28;20034;-66
2022/12/24 04:01:37;;;;;;;8.30;5.20;;;8.40;99.20;;;;;;5002967;28;20942;-66
2022/12/24 04:04:03;;;;;;;6.07;4.00;;;8.40;99.10;;;;;;4997189;28;20099;-66
2022/12/24 04:06:29;;;;;;;6.43;4.00;;;8.40;98.90;;;;;;4998831;28;20026;-66
2022/12/24 04:08:55;;;;;;;7.57;4.90;;;8.40;99.00;;;;;;4999111;28;20036;-66
2022/12/24 04:11:21;;;;;;;7.03;4.63;;;8.40;98.90;;;;;;5001834;28;20616;-66
2022/12/24 04:13:47;;;;;;;8.85;4.82;;;8.40;98.90;;;;;;5001277;28;20030;-66
2022/12/24 04:16:14;;;;;;;8.85;4.70;;;8.40;98.80;;;;;;5003598;28;20063;-66
2022/12/24 04:18:41;;;;;;;9.65;4.95;;;8.40;98.90;;;;;;5001853;28;20038;-67
2022/12/24 04:21:07;;;;;;;6.07;4.38;;;8.40;99.00;;;;;;5000452;28;20053;-66
2022/12/24 04:23:35;;;;;;;6.75;4.20;;;8.40;99.00;;;;;;5000780;28;20041;-66
2022/12/24 04:26:04;;;;;;;6.28;3.97;;;8.40;99.00;;;;;;4996128;28;20037;-66
2022/12/24 04:28:30;;;;;;;7.65;4.68;;;8.40;99.00;;;;;;4997106;28;20057;-67
2022/12/24 04:31:05;;;;;;;6.85;4.82;;;8.40;99.10;;;;;;5000403;28;20782;-66
2022/12/24 04:33:31;;;;;;;6.97;4.68;;;8.40;99.10;;;;;;5002689;28;20040;-66
2022/12/24 04:36:00;;;;;;;7.03;4.50;;;8.40;99.00;;;;;;5004667;28;20901;-67
2022/12/24 04:38:26;;;;;;;7.40;4.45;;;8.40;99.00;;;;;;5001536;28;20096;-66
2022/12/24 04:41:00;;;;;;;6.70;4.43;;;8.40;99.00;;;;;;4999978;28;20770;-66
2022/12/24 04:43:27;;;;;;;8.07;4.93;;;8.40;99.00;;;;;;4998255;28;20030;-66
2022/12/24 04:45:53;;;;;;;9.13;5.05;;;8.50;99.00;;;;;;5001349;28;20121;-67
2022/12/24 04:48:19;;;;;;;11.55;5.68;;;8.40;99.00;;;;;;5000330;28;20128;-66
2022/12/24 04:50:44;;;;;;;8.65;5.47;;;8.40;99.20;;;;;;5003758;28;20038;-66
2022/12/24 04:53:13;;;;;;;9.88;6.07;;;8.40;99.10;;;;;;4999515;28;20083;-67
2022/12/24 04:55:44;;;;;;;10.27;6.00;;;8.40;99.20;;;;;;5003037;28;20026;-66
2022/12/24 04:58:09;;;;;;;9.68;5.93;;;8.30;99.10;;;;;;4998268;28;20132;-67
2022/12/24 05:00:35;;;;;;;9.63;5.25;;;8.40;99.10;;;;;;5001334;28;20109;-66
2022/12/24 05:03:01;;;;;;;7.65;5.05;;;8.40;99.00;;;;;;5001745;28;20041;-67
2022/12/24 05:05:27;;;;;;;9.23;6.07;;;8.30;99.30;;;;;;5000271;28;20049;-66
2022/12/24 05:07:52;;;;;;;6.93;4.40;;;8.30;99.10;;;;;;5000813;28;20045;-67
2022/12/24 05:10:18;;;;;;;10.00;6.32;;;8.30;99.10;;;;;;5002599;28;20034;-67
2022/12/24 05:12:44;;;;;;;8.80;5.30;;;8.40;99.20;;;;;;5002030;28;20665;-67
2022/12/24 05:15:10;;;;;;;9.30;5.20;;;8.30;99.00;;;;;;4999342;28;20037;-66
2022/12/24 05:17:35;;;;;;;8.55;5.25;;;8.30;99.00;;;;;;4999149;28;20088;-66
2022/12/24 05:20:02;;;;;;;9.00;5.75;;;8.40;99.00;;;;;;4998466;28;20045;-67
2022/12/24 05:27:56;;;;;;;9.35;5.75;;;8.30;99.20;;;;;;5003513;28;20038;-66
2022/12/24 05:30:22;;;;;;;11.38;6.50;;;8.30;99.20;;;;;;5001079;28;20034;-66
2022/12/24 05:32:48;;;;;;;9.63;5.78;;;8.30;99.20;;;;;;5001354;28;20038;-66
2022/12/24 05:35:14;;;;;;;8.50;5.72;;;8.20;99.40;;;;;;5001257;28;20486;-66
2022/12/24 05:37:39;;;;;;;8.27;5.60;;;8.30;99.60;;;;;;4998615;28;20041;-66
2022/12/24 05:40:06;;;;;;;8.82;6.15;;;8.20;99.50;;;;;;5001981;28;20045;-67
2022/12/24 05:42:31;;;;;;;8.07;5.38;;;8.30;99.50;;;;;;4997145;28;20053;-66
2022/12/24 05:44:57;;;;;;;11.82;5.75;;;8.30;99.50;;;;;;4998687;28;20076;-66
2022/12/24 05:47:23;;;;;;;8.07;5.60;;;8.30;99.30;;;;;;5001854;28;20395;-66
2022/12/24 05:49:49;;;;;;;8.65;6.03;;;8.30;99.20;;;;;;5001954;28;20654;-67
2022/12/24 05:52:14;;;;;;;9.00;5.70;;;8.30;99.20;;;;;;5001314;28;20398;-66
2022/12/24 05:54:40;;;;;;;10.07;6.55;;;8.30;99.30;;;;;;4999216;28;20038;-65
2022/12/24 05:57:07;;;;;;;9.98;6.45;;;8.30;99.30;;;;;;4998429;28;20033;-66
2022/12/24 05:59:33;;;;;;;10.13;6.25;;;8.30;99.30;;;;;;5000523;28;20034;-65
2022/12/24 06:01:58;;;;;;;9.60;6.38;;;8.30;99.20;;;;;;4998931;28;20038;-65
2022/12/24 06:04:24;;;;;;;8.35;5.57;;;8.40;99.30;;;;;;4998603;28;20053;-67
2022/12/24 06:06:50;;;;;;;9.15;6.22;;;8.30;99.20;;;;;;5000944;28;20040;-67
2022/12/24 06:09:16;;;;;;;8.90;6.05;;;8.30;99.20;;;;;;4999993;28;20034;-67
2022/12/24 06:11:42;;;;;;;9.65;6.18;;;8.30;99.40;;;;;;4998898;28;20401;-66
2022/12/24 06:14:08;;;;;;;8.82;5.50;;;8.30;99.30;;;;;;5000284;28;20087;-67
2022/12/24 06:16:33;;;;;;;10.90;6.38;;;8.30;99.30;;;;;;4997410;28;20037;-66
2022/12/24 06:18:59;;;;;;;11.27;6.68;;;8.30;99.40;;;;;;5002813;28;20081;-66
2022/12/24 06:21:25;;;;;;;11.85;6.95;;;8.30;99.40;;;;;;4995003;28;20487;-67
2022/12/24 06:23:51;;;;;;;10.77;6.18;;;8.30;99.30;;;;;;5002385;28;20069;-67
2022/12/24 06:26:20;;;;;;;10.60;6.95;;;8.30;99.50;;;;;;5001328;28;20083;-66
2022/12/24 06:28:47;;;;;;;9.88;6.05;;;8.30;99.30;;;;;;5000077;28;20048;-66
2022/12/24 06:31:15;;;;;;;10.70;6.82;;;8.30;99.00;;;;;;4996716;28;20038;-66
2022/12/24 06:33:42;;;;;;;11.00;6.30;;;8.30;99.00;;;;;;5000235;28;20565;-67
2022/12/24 06:36:13;;;;;;;8.48;6.00;;;8.30;99.00;;;;;;4994202;28;20042;-67
2022/12/24 06:38:38;;;;;;;9.15;5.53;;;8.20;99.10;;;;;;4999238;28;20033;-67
2022/12/24 06:41:06;;;;;;;10.15;6.65;;;8.30;99.10;;;;;;4991124;28;20104;-66
2022/12/24 06:43:33;;;;;;;9.68;6.47;;;8.30;99.10;;;;;;5001559;28;20563;-66
2022/12/24 06:46:00;;;;;;;9.98;6.38;;;8.30;99.20;;;;;;4996706;28;20525;-66
2022/12/24 06:48:27;;;;;;;12.43;7.40;;;8.30;99.20;;;;;;5001629;28;20042;-67
2022/12/24 06:50:52;;;;;;;9.68;6.00;;;8.30;99.00;;;;;;4998858;28;20018;-66
2022/12/24 06:53:18;;;;;;;10.25;6.45;;;8.30;99.00;;;;;;4997545;28;20924;-67
2022/12/24 06:55:44;;;;;;;8.23;6.03;;;8.30;99.20;;;;;;4998968;28;20058;-66
2022/12/24 06:58:10;;;;;;;10.05;6.32;;;8.20;99.30;;;;;;4992169;28;20035;-66
2022/12/24 07:00:36;;;;;;;10.52;6.90;;;8.20;99.30;;;;;;5001526;28;20084;-67
2022/12/24 07:03:02;;;;;;;10.15;7.15;;;8.30;99.40;;;;;;5000585;28;20061;-66
2022/12/24 07:05:29;;;;;;;11.05;6.60;;;8.30;99.40;;;;;;5000726;28;20125;-67
2022/12/24 07:07:55;;;;;;;8.20;6.00;;;8.30;99.30;;;;;;5000275;28;20033;-67
2022/12/24 07:10:21;;;;;;;8.60;5.75;;;8.30;99.10;;;;;;4997998;28;20037;-67
2022/12/24 07:12:47;;;;;;;10.48;6.70;;;8.30;99.10;;;;;;4997260;28;20029;-66
2022/12/24 07:15:14;;;;;;;8.90;6.05;;;8.30;99.10;;;;;;4998624;28;20036;-66
2022/12/24 07:17:40;;;;;;;9.57;5.75;;;8.30;99.20;;;;;;4999027;28;20770;-66
2022/12/24 07:20:07;;;;;;;8.02;5.68;;;8.30;99.20;;;;;;4998177;28;20704;-67
2022/12/24 07:22:33;;;;;;;8.75;6.00;;;8.30;99.30;;;;;;4994150;28;20042;-67
2022/12/24 07:24:59;;;;;;;9.25;5.68;;;8.30;99.30;;;;;;4999256;28;20041;-67
2022/12/24 07:27:24;;;;;;;11.00;7.00;;;8.30;99.30;;;;;;4999897;28;20038;-67
2022/12/24 07:29:50;;;;;;;9.32;5.97;;;8.40;99.40;;;;;;4997953;28;20091;-68
2022/12/24 07:32:16;;;;;;;9.80;6.10;;;8.30;99.40;;;;;;4994952;28;20795;-67
2022/12/24 07:34:42;;;;;;;9.15;6.00;;;8.30;99.50;;;;;;4998302;28;20752;-68
2022/12/24 07:37:07;;;;;;;7.60;5.47;;;8.30;99.50;;;;;;4990496;28;20505;-68
2022/12/24 07:39:33;;;;;;;9.45;6.43;;;8.30;99.40;;;;;;4998160;28;20916;-66
2022/12/24 07:41:59;;;;;;;8.52;5.95;;;8.40;99.40;;;;;;4991286;28;20041;-68
2022/12/24 07:44:25;;;;;;;13.82;7.47;;;8.40;99.60;;;;;;5000134;28;20165;-68
2022/12/24 07:46:51;;;;;;;10.82;7.43;;;8.40;99.30;;;;;;4995564;28;20668;-68
2022/12/24 07:49:17;;;;;;;10.98;6.45;;;8.40;99.20;;;;;;4998755;28;20483;-66
2022/12/24 07:51:42;;;;;;;9.50;6.20;;;8.40;99.10;;;;;;4998057;28;20037;-66
2022/12/24 07:54:08;;;;;;;10.85;6.65;;;8.40;99.20;;;;;;5000199;28;20375;-67
2022/12/24 07:56:34;;;;;;;13.15;6.75;;;8.40;99.20;;;;;;5001371;28;20052;-67
2022/12/24 07:59:00;;;;;;;12.00;6.95;;;8.40;99.20;;;;;;5001218;28;20038;-66
2022/12/24 08:01:26;;;;;;;9.52;6.38;;;8.40;99.30;;;;;;4999069;28;20125;-67
2022/12/24 08:03:53;;;;;;;10.02;6.68;;;8.40;99.40;;;;;;5002450;28;20045;-66
2022/12/24 08:06:22;;;;;;;11.48;6.75;;;8.40;99.40;;;;;;5000371;28;20125;-69
2022/12/24 08:08:48;;;;;;;11.90;6.70;;;8.40;99.50;;;;;;4999916;28;20651;-66
2022/12/24 08:11:13;;;;;;;8.63;5.60;;;8.40;99.60;;;;;;4996578;28;20133;-72
2022/12/24 08:13:39;;;;;;;11.10;6.50;;;8.40;99.50;;;;;;4998037;28;20117;-66
2022/12/24 08:16:05;;;;;;;9.75;6.07;;;8.50;99.50;;;;;;5001804;28;20072;-67
2022/12/24 08:18:32;;;;;;;8.82;6.20;;;8.50;99.30;;;;;;5004339;28;20092;-66
2022/12/24 08:20:58;;;;;;;8.13;5.57;;;8.50;99.20;;;;;;5003636;28;20037;-72
2022/12/24 08:23:24;;;;;;;9.07;5.72;;;8.50;99.30;;;;;;5003278;28;20565;-66
2022/12/24 08:25:50;;;;;;;21.10;12.73;;;8.60;99.30;;;;;;5000415;28;20033;-66
2022/12/24 08:28:18;;;;;;;21.10;13.60;;;8.60;99.50;;;;;;4999424;28;20743;-68
2022/12/24 08:30:46;;;;;;;26.75;16.30;;;8.60;99.20;;;;;;5000139;28;20064;-66
2022/12/24 08:33:12;;;;;;;17.92;9.75;;;8.60;99.30;;;;;;4994116;28;20462;-67
2022/12/24 08:35:38;;;;;;;15.68;8.15;;;8.70;99.40;;;;;;4999912;28;20057;-66
2022/12/24 08:38:04;;;;;;;13.23;8.25;;;8.60;99.40;;;;;;5003687;28;20038;-67
2022/12/24 08:40:30;;;;;;;11.40;7.20;;;8.60;99.60;;;;;;5002602;28;20799;-66
2022/12/24 08:42:55;;;;;;;18.15;11.43;;;8.60;99.60;;;;;;5001103;28;20033;-67
2022/12/24 08:45:21;;;;;;;17.52;11.40;;;8.70;99.70;;;;;;4999881;28;20042;-68
2022/12/24 08:47:47;;;;;;;21.52;13.35;;;8.70;99.80;;;;;;5001263;28;20033;-69
2022/12/24 08:50:13;;;;;;;16.23;10.43;;;8.60;99.70;;;;;;4998738;28;20637;-66
2022/12/24 08:52:39;;;;;;;20.20;12.68;;;8.70;99.80;;;;;;4996865;28;20469;-66
2022/12/24 08:55:05;;;;;;;23.02;12.75;;;8.70;99.80;;;;;;5003434;28;20041;-66
2022/12/24 08:57:35;;;;;;;36.25;19.85;;;8.70;99.80;;;;;;5025633;28;20176;-65
2022/12/24 09:00:00;;;;;;;31.63;16.58;;;8.80;99.80;;;;;;5001291;28;20036;-67
2022/12/24 09:02:26;;;;;;;22.77;11.90;;;8.90;99.70;;;;;;5001252;28;20766;-65
2022/12/24 09:04:52;;;;;;;14.65;8.30;;;8.90;99.70;;;;;;5000816;28;20030;-66
2022/12/24 09:07:18;;;;;;;9.02;6.18;;;9.00;99.70;;;;;;4999061;28;20037;-66
2022/12/24 09:09:44;;;;;;;9.07;5.72;;;9.00;99.60;;;;;;4999669;28;20661;-67
2022/12/24 09:12:10;;;;;;;11.07;6.45;;;9.10;99.50;;;;;;4995917;28;20495;-67
2022/12/24 09:14:36;;;;;;;7.30;5.07;;;9.10;99.50;;;;;;5001673;28;20072;-65
2022/12/24 09:17:01;;;;;;;9.07;5.50;;;9.10;99.50;;;;;;5002151;28;20058;-65
2022/12/24 09:19:27;;;;;;;8.45;5.53;;;9.20;99.50;;;;;;5001399;28;20062;-66
2022/12/24 09:21:53;;;;;;;7.47;5.13;;;9.30;99.50;;;;;;4999541;28;20096;-65
2022/12/24 09:24:19;;;;;;;7.78;4.97;;;9.30;99.40;;;;;;4996532;28;20031;-65
2022/12/24 09:26:48;;;;;;;7.10;4.72;;;9.40;99.40;;;;;;5000491;28;20129;-67
2022/12/24 09:29:14;;;;;;;5.28;4.10;;;9.40;99.40;;;;;;4994215;28;20038;-67
2022/12/24 09:31:41;;;;;;;5.60;3.85;;;9.40;99.30;;;;;;4995348;28;20040;-66
2022/12/24 09:34:06;;;;;;;8.60;5.60;;;9.50;99.40;;;;;;5003489;28;20029;-67
2022/12/24 09:36:33;;;;;;;7.53;4.90;;;9.50;99.40;;;;;;5002244;28;20516;-66
2022/12/24 09:38:59;;;;;;;7.35;4.78;;;9.50;99.40;;;;;;5000034;28;20041;-66
2022/12/24 09:41:30;;;;;;;6.28;4.45;;;9.60;99.40;;;;;;4997397;28;20542;-68
2022/12/24 09:44:25;;;;;;;7.78;5.28;;;9.60;99.40;;;;;;4997214;28;20437;-65
2022/12/24 09:46:52;;;;;;;8.57;4.82;;;9.60;99.40;;;;;;4986739;28;20438;-66
2022/12/24 09:49:38;;;;;;;8.82;5.72;;;9.60;99.40;;;;;;4993625;28;20034;-66
2022/12/24 09:52:10;;;;;;;9.07;5.25;;;9.60;99.20;;;;;;4998716;28;20037;-67
2022/12/24 09:54:41;;;;;;;6.93;4.60;;;9.70;99.20;;;;;;4998880;28;20038;-67
2022/12/24 09:57:16;;;;;;;8.65;5.68;;;9.60;99.30;;;;;;4998783;28;20022;-67
2022/12/24 09:59:45;;;;;;;8.52;4.90;;;9.70;99.30;;;;;;4998199;28;20124;-67
2022/12/24 10:02:14;;;;;;;9.02;4.68;;;9.70;99.30;;;;;;4995047;28;20041;-67
2022/12/24 10:04:42;;;;;;;8.13;4.50;;;9.70;99.40;;;;;;4997156;28;20042;-67
2022/12/24 10:07:38;;;;;;;8.45;4.57;;;9.70;99.40;;;;;;4991386;28;20920;-66
2022/12/24 10:10:23;;;;;;;9.70;5.03;;;9.70;99.50;;;;;;4995292;28;20529;-68
2022/12/24 10:13:29;;;;;;;8.00;4.30;;;9.70;99.60;;;;;;5000320;28;20033;-69
2022/12/24 10:16:08;;;;;;;5.88;4.18;;;9.70;99.70;;;;;;4996955;28;20052;-66
2022/12/24 10:18:45;;;;;;;4.90;3.50;;;9.80;99.70;;;;;;4996608;28;20129;-66
2022/12/24 10:21:14;;;;;;;;;;;9.80;99.70;;;;;;4995123;28;20557;-66
2022/12/24 10:23:43;;;;;;;3.70;2.70;;;9.80;99.90;;;;;;4996075;28;19913;-66
2022/12/24 10:26:26;;;;;;;3.55;2.85;;;9.80;99.70;;;;;;4994739;28;20036;-66
2022/12/24 10:29:04;;;;;;;4.25;2.78;;;9.80;99.80;;;;;;4997219;28;20066;-67
2022/12/24 10:31:34;;;;;;;6.18;2.53;;;9.90;99.90;;;;;;4999617;28;20042;-68
2022/12/24 10:34:04;;;;;;;3.03;2.10;;;9.90;99.90;;;;;;4997934;28;20034;-68
2022/12/24 10:36:31;;;;;;;2.53;2.30;;;9.90;99.80;;;;;;4997842;28;20045;-65
2022/12/24 10:38:57;;;;;;;2.78;2.20;;;10.00;99.80;;;;;;4996316;28;20148;-66
2022/12/24 10:41:26;;;;;;;4.18;2.13;;;10.00;99.90;;;;;;4994682;28;20069;-66
2022/12/24 10:43:53;;;;;;;3.20;2.58;;;10.00;99.80;;;;;;4994016;28;20889;-67
2022/12/24 10:46:22;;;;;;;2.92;2.38;;;10.10;99.90;;;;;;4993718;28;20034;-67
2022/12/24 10:48:55;;;;;;;2.53;2.30;;;10.20;99.90;;;;;;5001489;28;20395;-66
2022/12/24 10:51:30;;;;;;;5.13;2.85;;;10.20;99.80;;;;;;4999646;28;20376;-66
2022/12/24 10:54:16;;;;;;;4.07;2.40;;;10.30;99.80;;;;;;4996234;28;20048;-67
2022/12/24 10:57:03;;;;;;;3.63;2.80;;;10.40;99.70;;;;;;4995210;28;20117;-67
2022/12/24 10:59:52;;;;;;;3.33;2.65;;;10.40;99.60;;;;;;4995249;28;20076;-67
2022/12/24 11:02:37;;;;;;;4.43;2.97;;;10.40;99.50;;;;;;4993478;28;20042;-66
2022/12/24 11:05:26;;;;;;;3.95;3.00;;;10.90;99.90;;;;;;4990820;28;20438;-66
2022/12/24 11:08:03;;;;;;;6.38;3.80;;;11.70;98.20;;;;;;4995614;28;20065;-66
2022/12/24 11:10:30;;;;;;;6.50;3.88;;;12.70;97.10;;;;;;4998642;28;20031;-66
2022/12/24 11:12:56;;;;;;;6.63;4.32;;;14.80;92.50;;;;;;5001452;28;20026;-67
2022/12/24 11:15:28;;;;;;;12.15;9.05;;;16.30;87.40;;;;;;4995308;28;20162;-67
2022/12/24 11:17:55;;;;;;;11.27;6.32;;;16.70;83.80;;;;;;4994842;28;20517;-66
2022/12/24 11:20:28;;;;;;;27.88;14.02;;;16.00;84.80;;;;;;4993168;28;20045;-66
2022/12/24 11:22:55;;;;;;;25.73;10.95;;;15.00;87.30;;;;;;4996600;28;20034;-67
2022/12/24 11:25:27;;;;;;;21.75;11.30;;;14.10;90.50;;;;;;4995957;28;20033;-67
2022/12/24 11:27:55;;;;;;;14.60;7.53;;;13.40;92.20;;;;;;4999803;28;20044;-67
2022/12/24 11:30:29;;;;;;;8.60;4.40;;;12.90;93.50;;;;;;4997263;28;20038;-68
2022/12/24 11:33:01;;;;;;;7.18;4.30;;;12.50;94.40;;;;;;4995829;28;20131;-67
2022/12/24 11:35:30;;;;;;;4.82;3.35;;;12.20;95.30;;;;;;4996734;28;20045;-67
2022/12/24 11:37:59;;;;;;;6.45;2.95;;;12.10;95.90;;;;;;4997245;28;20044;-67
2022/12/24 11:40:32;;;;;;;5.80;2.60;;;12.00;96.40;;;;;;4998213;28;20030;-67
2022/12/24 11:43:00;;;;;;;8.43;3.83;;;11.90;96.70;;;;;;5005568;28;20038;-67
2022/12/24 11:45:28;;;;;;;11.38;4.78;;;11.90;97.00;;;;;;4999225;28;20044;-67
2022/12/24 11:47:55;;;;;;;10.02;4.03;;;11.80;96.70;;;;;;4997535;28;20027;-67
2022/12/24 11:50:25;;;;;;;6.22;2.75;;;11.70;97.00;;;;;;4995326;28;20034;-69
2022/12/24 11:53:03;;;;;;;6.85;4.05;;;11.60;97.10;;;;;;4998634;28;20034;-68
2022/12/24 11:56:10;;;;;;;13.00;4.97;;;11.50;97.30;;;;;;4995160;28;20040;-68
2022/12/24 11:58:51;;;;;;;15.45;5.45;;;11.40;97.30;;;;;;4997437;28;20122;-68
2022/12/24 12:01:24;;;;;;;10.45;4.10;;;11.30;97.80;;;;;;4998153;28;20044;-67
2022/12/24 12:04:05;;;;;;;11.15;2.80;;;11.20;98.00;;;;;;4997359;28;20033;-68
2022/12/24 12:06:36;;;;;;;18.52;3.28;;;11.20;98.20;;;;;;5000649;28;20034;-68
2022/12/24 12:09:10;;;;;;;10.88;3.03;;;11.20;98.30;;;;;;4997205;28;20032;-69
2022/12/24 12:11:39;;;;;;;9.45;2.85;;;11.10;98.20;;;;;;4990150;28;20121;-68
2022/12/24 12:14:08;;;;;;;13.73;4.18;;;11.10;98.30;;;;;;4997114;28;20030;-69
2022/12/24 12:17:02;;;;;;;16.63;4.07;;;11.10;98.40;;;;;;5007521;28;20049;-68
2022/12/24 12:19:54;;;;;;;15.07;2.90;;;11.20;98.40;;;;;;4994374;28;20045;-68
2022/12/24 12:22:34;;;;;;;13.02;3.20;;;11.20;98.20;;;;;;4990348;28;20041;-68
2022/12/24 12:25:03;;;;;;;10.77;2.97;;;11.30;98.40;;;;;;4998237;28;20033;-68
2022/12/24 12:27:45;;;;;;;20.15;3.60;;;11.30;98.60;;;;;;4996840;28;20637;-73
2022/12/24 12:30:16;;;;;;;10.30;2.83;;;11.40;98.60;;;;;;4993892;28;20754;-68
2022/12/24 12:32:54;;;;;;;11.63;4.10;;;11.50;98.50;;;;;;4996539;28;20833;-68
2022/12/24 12:35:27;;;;;;;10.88;3.50;;;11.50;98.30;;;;;;5025896;28;20049;-68
2022/12/24 12:38:12;;;;;;;12.68;3.38;;;11.50;98.10;;;;;;4987867;28;20502;-68
2022/12/24 12:40:50;;;;;;;9.60;2.47;;;11.50;98.20;;;;;;4999090;28;20149;-68
2022/12/24 12:43:40;;;;;;;11.90;2.92;;;11.50;98.20;;;;;;4996152;28;20048;-67
2022/12/24 12:46:12;;;;;;;12.45;3.35;;;11.40;98.20;;;;;;4992629;28;20517;-68
2022/12/24 12:49:15;;;;;;;8.60;2.42;;;11.40;98.30;;;;;;4989353;28;20049;-67
2022/12/24 12:51:52;;;;;;;10.98;2.53;;;11.40;98.30;;;;;;4988310;28;20035;-68
2022/12/24 12:54:57;;;;;;;8.20;2.17;;;11.50;98.40;;;;;;4994719;28;20152;-69
2022/12/24 12:57:27;;;;;;;9.82;2.78;;;11.40;98.30;;;;;;4987595;28;20157;-68
2022/12/24 13:00:01;;;;;;;11.25;3.03;;;11.40;98.20;;;;;;4988922;28;20038;-68
2022/12/24 13:02:45;;;;;;;7.63;2.42;;;11.40;98.20;;;;;;4995477;28;20123;-69
2022/12/24 13:05:48;;;;;;;8.45;2.42;;;11.30;98.30;;;;;;4993859;28;20038;-69
2022/12/24 13:08:52;;;;;;;4.35;2.05;;;11.30;98.40;;;;;;4992197;28;20034;-68
2022/12/24 13:11:44;;;;;;;10.07;2.35;;;11.30;98.40;;;;;;4994339;28;20533;-67
2022/12/24 13:14:39;;;;;;;11.93;3.15;;;11.30;98.50;;;;;;4994384;28;20038;-69
2022/12/24 13:17:36;;;;;;;10.23;3.28;;;11.30;98.50;;;;;;4994036;28;20030;-68